ENRS/RET METAR and TAF weather

Enter ICAO airport designator
Station Type Date Time Source
ENRS METAR 2019/02/23 07:20 UTC NOAA

ENRS 230720Z 22021KT 7000 VCSH SCT008 OVC011 07/06 Q1019


Station Type Date Time Source
ENRS Decoded METAR 2019/02/23 07:20 UTC NOAA

Rost Flyplass, Norway (ENRS) 67-31N 012-06E
Feb 23, 2019 - 02:20 AM EST / 2019.02.23 0720 UTC
Wind: from the SW (220 degrees) at 24 MPH (21 KT):0
Visibility: 4 mile(s):0
Sky conditions: overcast
Weather: showers in the vicinity
Temperature: 44 F (7 C)
Dew Point: 42 F (6 C)
Relative Humidity: 93%
Pressure (altimeter): 30.09 in. Hg (1019 hPa)
ob: ENRS 230720Z 22021KT 7000 VCSH SCT008 OVC011 07/06 Q1019
cycle: 7

Station Type Date Time Source
ENRS TAF UTC NOAA

Error!


Example: see airport list